sensor_id;sensor_type;location;lat;lon;timestamp;P1;durP1;ratioP1;P2;durP2;ratioP2
34296;SDS011;20564;42.902;25.336;2023-02-07T00:03:52;2.97;;;1.15;;
34296;SDS011;20564;42.902;25.336;2023-02-07T00:06:23;3.78;;;1.50;;
34296;SDS011;20564;42.902;25.336;2023-02-07T00:08:52;5.97;;;2.40;;
34296;SDS011;20564;42.902;25.336;2023-02-07T00:11:20;4.07;;;1.15;;
34296;SDS011;20564;42.902;25.336;2023-02-07T00:13:50;4.00;;;1.92;;
34296;SDS011;20564;42.902;25.336;2023-02-07T00:16:18;3.45;;;1.17;;
34296;SDS011;20564;42.902;25.336;2023-02-07T00:18:46;3.60;;;1.67;;
34296;SDS011;20564;42.902;25.336;2023-02-07T00:21:14;2.92;;;1.73;;
34296;SDS011;20564;42.902;25.336;2023-02-07T00:23:43;5.45;;;1.92;;
34296;SDS011;20564;42.902;25.336;2023-02-07T00:26:11;5.30;;;1.17;;
34296;SDS011;20564;42.902;25.336;2023-02-07T00:28:39;3.15;;;1.83;;
34296;SDS011;20564;42.902;25.336;2023-02-07T00:31:07;0.60;;;0.55;;
34296;SDS011;20564;42.902;25.336;2023-02-07T00:33:38;2.85;;;1.42;;
34296;SDS011;20564;42.902;25.336;2023-02-07T00:36:07;6.80;;;1.48;;
34296;SDS011;20564;42.902;25.336;2023-02-07T00:38:36;6.03;;;2.47;;
34296;SDS011;20564;42.902;25.336;2023-02-07T00:41:03;5.70;;;1.35;;
34296;SDS011;20564;42.902;25.336;2023-02-07T00:43:30;7.53;;;2.42;;
34296;SDS011;20564;42.902;25.336;2023-02-07T00:46:01;4.38;;;1.75;;
34296;SDS011;20564;42.902;25.336;2023-02-07T00:48:29;3.75;;;1.90;;
34296;SDS011;20564;42.902;25.336;2023-02-07T00:50:57;3.17;;;0.98;;
34296;SDS011;20564;42.902;25.336;2023-02-07T00:53:25;6.80;;;2.50;;
34296;SDS011;20564;42.902;25.336;2023-02-07T00:55:54;5.40;;;1.20;;
34296;SDS011;20564;42.902;25.336;2023-02-07T00:58:20;3.85;;;1.98;;
34296;SDS011;20564;42.902;25.336;2023-02-07T01:00:48;3.85;;;1.17;;
34296;SDS011;20564;42.902;25.336;2023-02-07T01:03:15;1.88;;;1.00;;
34296;SDS011;20564;42.902;25.336;2023-02-07T01:05:43;3.15;;;0.70;;
34296;SDS011;20564;42.902;25.336;2023-02-07T01:08:10;1.95;;;1.02;;
34296;SDS011;20564;42.902;25.336;2023-02-07T01:10:41;2.08;;;0.95;;
34296;SDS011;20564;42.902;25.336;2023-02-07T01:13:10;4.30;;;1.63;;
34296;SDS011;20564;42.902;25.336;2023-02-07T01:15:40;1.52;;;0.90;;
34296;SDS011;20564;42.902;25.336;2023-02-07T01:18:09;2.85;;;1.52;;
34296;SDS011;20564;42.902;25.336;2023-02-07T01:20:36;3.38;;;0.85;;
34296;SDS011;20564;42.902;25.336;2023-02-07T01:23:04;5.60;;;1.60;;
34296;SDS011;20564;42.902;25.336;2023-02-07T01:25:31;2.75;;;0.68;;
34296;SDS011;20564;42.902;25.336;2023-02-07T01:27:59;2.80;;;1.05;;
34296;SDS011;20564;42.902;25.336;2023-02-07T01:30:25;5.63;;;1.93;;
34296;SDS011;20564;42.902;25.336;2023-02-07T01:32:52;5.93;;;2.63;;
34296;SDS011;20564;42.902;25.336;2023-02-07T01:35:19;4.18;;;1.25;;
34296;SDS011;20564;42.902;25.336;2023-02-07T01:37:46;3.10;;;1.00;;
34296;SDS011;20564;42.902;25.336;2023-02-07T01:40:13;1.77;;;0.90;;
34296;SDS011;20564;42.902;25.336;2023-02-07T01:42:40;3.87;;;1.73;;
34296;SDS011;20564;42.902;25.336;2023-02-07T01:47:51;4.15;;;1.42;;
34296;SDS011;20564;42.902;25.336;2023-02-07T01:50:20;3.78;;;1.10;;
34296;SDS011;20564;42.902;25.336;2023-02-07T01:52:48;2.47;;;0.93;;
34296;SDS011;20564;42.902;25.336;2023-02-07T01:55:17;3.08;;;0.95;;
34296;SDS011;20564;42.902;25.336;2023-02-07T01:57:48;2.90;;;1.00;;
34296;SDS011;20564;42.902;25.336;2023-02-07T02:00:15;1.63;;;0.43;;
34296;SDS011;20564;42.902;25.336;2023-02-07T02:02:43;2.83;;;1.02;;
34296;SDS011;20564;42.902;25.336;2023-02-07T02:05:10;2.95;;;0.60;;
34296;SDS011;20564;42.902;25.336;2023-02-07T02:07:38;5.22;;;1.20;;
34296;SDS011;20564;42.902;25.336;2023-02-07T02:10:09;4.40;;;0.80;;
34296;SDS011;20564;42.902;25.336;2023-02-07T02:15:33;1.38;;;0.73;;
34296;SDS011;20564;42.902;25.336;2023-02-07T02:18:14;3.72;;;1.13;;
34296;SDS011;20564;42.902;25.336;2023-02-07T02:27:02;1.52;;;0.60;;
34296;SDS011;20564;42.902;25.336;2023-02-07T02:32:58;2.15;;;1.15;;
34296;SDS011;20564;42.902;25.336;2023-02-07T02:35:14;2.08;;;0.63;;
34296;SDS011;20564;42.902;25.336;2023-02-07T02:37:54;4.65;;;1.27;;
34296;SDS011;20564;42.902;25.336;2023-02-07T02:43:30;2.27;;;0.73;;
34296;SDS011;20564;42.902;25.336;2023-02-07T02:46:06;4.03;;;0.93;;
34296;SDS011;20564;42.902;25.336;2023-02-07T02:48:37;2.72;;;1.63;;
34296;SDS011;20564;42.902;25.336;2023-02-07T02:51:05;5.32;;;1.20;;
34296;SDS011;20564;42.902;25.336;2023-02-07T02:53:32;1.50;;;0.60;;
34296;SDS011;20564;42.902;25.336;2023-02-07T03:01:49;3.95;;;1.42;;
34296;SDS011;20564;42.902;25.336;2023-02-07T03:07:35;4.55;;;2.15;;
34296;SDS011;20564;42.902;25.336;2023-02-07T03:16:19;2.97;;;1.05;;
34296;SDS011;20564;42.902;25.336;2023-02-07T03:21:36;1.75;;;0.68;;
34296;SDS011;20564;42.902;25.336;2023-02-07T03:24:21;3.00;;;0.93;;
34296;SDS011;20564;42.902;25.336;2023-02-07T03:26:52;4.35;;;1.15;;
34296;SDS011;20564;42.902;25.336;2023-02-07T03:29:23;3.70;;;0.98;;
34296;SDS011;20564;42.902;25.336;2023-02-07T03:31:52;5.38;;;1.88;;
34296;SDS011;20564;42.902;25.336;2023-02-07T03:34:24;5.20;;;1.73;;
34296;SDS011;20564;42.902;25.336;2023-02-07T03:37:17;4.30;;;1.17;;
34296;SDS011;20564;42.902;25.336;2023-02-07T03:39:49;3.55;;;1.70;;
34296;SDS011;20564;42.902;25.336;2023-02-07T03:42:26;3.53;;;0.80;;
34296;SDS011;20564;42.902;25.336;2023-02-07T03:44:57;3.20;;;1.20;;
34296;SDS011;20564;42.902;25.336;2023-02-07T03:47:26;2.38;;;1.08;;
34296;SDS011;20564;42.902;25.336;2023-02-07T03:49:53;4.70;;;1.17;;
34296;SDS011;20564;42.902;25.336;2023-02-07T03:52:20;3.38;;;1.30;;
34296;SDS011;20564;42.902;25.336;2023-02-07T03:54:47;1.63;;;0.95;;
34296;SDS011;20564;42.902;25.336;2023-02-07T03:57:14;2.38;;;1.58;;
34296;SDS011;20564;42.902;25.336;2023-02-07T03:59:41;5.15;;;2.03;;
34296;SDS011;20564;42.902;25.336;2023-02-07T04:02:07;2.85;;;1.75;;
34296;SDS011;20564;42.902;25.336;2023-02-07T04:04:34;2.50;;;1.47;;
34296;SDS011;20564;42.902;25.336;2023-02-07T04:07:01;5.72;;;1.58;;
34296;SDS011;20564;42.902;25.336;2023-02-07T04:09:28;5.20;;;1.92;;
34296;SDS011;20564;42.902;25.336;2023-02-07T04:11:55;1.65;;;1.30;;
34296;SDS011;20564;42.902;25.336;2023-02-07T04:14:22;7.73;;;2.60;;
34296;SDS011;20564;42.902;25.336;2023-02-07T04:16:49;5.95;;;2.05;;
34296;SDS011;20564;42.902;25.336;2023-02-07T04:19:16;4.18;;;1.67;;
34296;SDS011;20564;42.902;25.336;2023-02-07T04:21:42;4.25;;;2.30;;
34296;SDS011;20564;42.902;25.336;2023-02-07T04:24:10;4.60;;;1.70;;
34296;SDS011;20564;42.902;25.336;2023-02-07T04:26:37;4.50;;;0.90;;
34296;SDS011;20564;42.902;25.336;2023-02-07T04:29:04;3.25;;;1.58;;
34296;SDS011;20564;42.902;25.336;2023-02-07T04:31:31;3.78;;;0.95;;
34296;SDS011;20564;42.902;25.336;2023-02-07T04:33:58;1.20;;;0.65;;
34296;SDS011;20564;42.902;25.336;2023-02-07T04:36:25;3.43;;;0.67;;
34296;SDS011;20564;42.902;25.336;2023-02-07T04:38:54;3.23;;;0.87;;
34296;SDS011;20564;42.902;25.336;2023-02-07T04:41:21;4.30;;;1.30;;
34296;SDS011;20564;42.902;25.336;2023-02-07T04:43:48;4.30;;;1.35;;
34296;SDS011;20564;42.902;25.336;2023-02-07T04:46:18;6.03;;;1.45;;
34296;SDS011;20564;42.902;25.336;2023-02-07T04:48:45;3.87;;;1.13;;
34296;SDS011;20564;42.902;25.336;2023-02-07T04:51:13;1.00;;;0.57;;
34296;SDS011;20564;42.902;25.336;2023-02-07T04:53:41;2.33;;;0.77;;
34296;SDS011;20564;42.902;25.336;2023-02-07T04:56:08;3.95;;;1.77;;
34296;SDS011;20564;42.902;25.336;2023-02-07T04:58:35;2.72;;;1.00;;
34296;SDS011;20564;42.902;25.336;2023-02-07T05:01:02;1.45;;;0.70;;
34296;SDS011;20564;42.902;25.336;2023-02-07T05:03:29;2.83;;;1.48;;
34296;SDS011;20564;42.902;25.336;2023-02-07T05:05:55;2.13;;;0.93;;
34296;SDS011;20564;42.902;25.336;2023-02-07T05:08:22;3.25;;;0.82;;
34296;SDS011;20564;42.902;25.336;2023-02-07T05:10:52;5.50;;;1.73;;
34296;SDS011;20564;42.902;25.336;2023-02-07T05:13:20;3.00;;;0.87;;
34296;SDS011;20564;42.902;25.336;2023-02-07T05:15:48;3.13;;;1.63;;
34296;SDS011;20564;42.902;25.336;2023-02-07T05:18:16;1.00;;;0.60;;
34296;SDS011;20564;42.902;25.336;2023-02-07T05:20:43;1.47;;;0.70;;
34296;SDS011;20564;42.902;25.336;2023-02-07T05:23:10;2.30;;;0.83;;
34296;SDS011;20564;42.902;25.336;2023-02-07T05:25:37;2.60;;;0.63;;
34296;SDS011;20564;42.902;25.336;2023-02-07T05:28:06;2.00;;;0.88;;
34296;SDS011;20564;42.902;25.336;2023-02-07T05:30:33;3.03;;;0.67;;
34296;SDS011;20564;42.902;25.336;2023-02-07T05:33:00;3.88;;;0.77;;
34296;SDS011;20564;42.902;25.336;2023-02-07T05:35:34;2.87;;;1.50;;
34296;SDS011;20564;42.902;25.336;2023-02-07T05:38:03;2.80;;;0.70;;
34296;SDS011;20564;42.902;25.336;2023-02-07T05:40:39;2.95;;;1.20;;
34296;SDS011;20564;42.902;25.336;2023-02-07T05:43:07;4.05;;;2.28;;
34296;SDS011;20564;42.902;25.336;2023-02-07T05:45:35;5.80;;;2.92;;
34296;SDS011;20564;42.902;25.336;2023-02-07T05:48:04;12.02;;;3.38;;
34296;SDS011;20564;42.902;25.336;2023-02-07T05:50:32;14.15;;;5.15;;
34296;SDS011;20564;42.902;25.336;2023-02-07T05:52:59;12.37;;;6.07;;
34296;SDS011;20564;42.902;25.336;2023-02-07T05:55:26;6.30;;;3.37;;
34296;SDS011;20564;42.902;25.336;2023-02-07T05:57:53;13.03;;;4.63;;
34296;SDS011;20564;42.902;25.336;2023-02-07T06:00:19;10.23;;;3.60;;
34296;SDS011;20564;42.902;25.336;2023-02-07T06:02:46;8.32;;;3.65;;
34296;SDS011;20564;42.902;25.336;2023-02-07T06:05:15;7.55;;;3.63;;
34296;SDS011;20564;42.902;25.336;2023-02-07T06:07:43;9.40;;;4.30;;
34296;SDS011;20564;42.902;25.336;2023-02-07T06:10:10;7.47;;;3.75;;
34296;SDS011;20564;42.902;25.336;2023-02-07T06:12:38;5.07;;;2.13;;
34296;SDS011;20564;42.902;25.336;2023-02-07T06:15:05;3.00;;;1.20;;
34296;SDS011;20564;42.902;25.336;2023-02-07T06:17:33;1.45;;;1.17;;
34296;SDS011;20564;42.902;25.336;2023-02-07T06:20:00;5.17;;;1.93;;
34296;SDS011;20564;42.902;25.336;2023-02-07T06:22:27;3.67;;;1.70;;
34296;SDS011;20564;42.902;25.336;2023-02-07T06:24:54;4.13;;;1.30;;
34296;SDS011;20564;42.902;25.336;2023-02-07T06:27:20;3.67;;;1.07;;
34296;SDS011;20564;42.902;25.336;2023-02-07T06:29:47;3.08;;;1.67;;
34296;SDS011;20564;42.902;25.336;2023-02-07T06:32:14;7.40;;;1.60;;
34296;SDS011;20564;42.902;25.336;2023-02-07T06:34:40;4.43;;;2.70;;
34296;SDS011;20564;42.902;25.336;2023-02-07T06:37:07;4.78;;;1.42;;
34296;SDS011;20564;42.902;25.336;2023-02-07T06:39:34;3.97;;;1.53;;
34296;SDS011;20564;42.902;25.336;2023-02-07T06:42:01;5.70;;;2.28;;
34296;SDS011;20564;42.902;25.336;2023-02-07T06:44:28;7.32;;;2.45;;
34296;SDS011;20564;42.902;25.336;2023-02-07T06:46:55;7.70;;;2.70;;
34296;SDS011;20564;42.902;25.336;2023-02-07T06:49:21;2.50;;;1.35;;
34296;SDS011;20564;42.902;25.336;2023-02-07T06:51:48;3.92;;;2.03;;
34296;SDS011;20564;42.902;25.336;2023-02-07T06:54:15;2.08;;;1.60;;
34296;SDS011;20564;42.902;25.336;2023-02-07T06:56:42;3.88;;;1.55;;
34296;SDS011;20564;42.902;25.336;2023-02-07T06:59:09;3.47;;;1.98;;
34296;SDS011;20564;42.902;25.336;2023-02-07T07:01:36;6.63;;;2.50;;
34296;SDS011;20564;42.902;25.336;2023-02-07T07:04:03;7.05;;;2.25;;
34296;SDS011;20564;42.902;25.336;2023-02-07T07:06:29;5.35;;;1.45;;
34296;SDS011;20564;42.902;25.336;2023-02-07T07:08:56;3.17;;;1.40;;
34296;SDS011;20564;42.902;25.336;2023-02-07T07:11:23;7.70;;;1.90;;
34296;SDS011;20564;42.902;25.336;2023-02-07T07:13:50;3.70;;;1.30;;
34296;SDS011;20564;42.902;25.336;2023-02-07T07:16:20;3.38;;;1.77;;
34296;SDS011;20564;42.902;25.336;2023-02-07T07:18:47;5.40;;;2.22;;
34296;SDS011;20564;42.902;25.336;2023-02-07T07:21:14;4.60;;;1.70;;
34296;SDS011;20564;42.902;25.336;2023-02-07T07:23:41;2.47;;;1.23;;
34296;SDS011;20564;42.902;25.336;2023-02-07T07:42:07;3.97;;;1.85;;
34296;SDS011;20564;42.902;25.336;2023-02-07T07:44:34;6.10;;;1.60;;
34296;SDS011;20564;42.902;25.336;2023-02-07T07:47:03;6.72;;;2.30;;
34296;SDS011;20564;42.902;25.336;2023-02-07T07:49:30;8.40;;;3.00;;
34296;SDS011;20564;42.902;25.336;2023-02-07T07:51:57;5.55;;;2.15;;
34296;SDS011;20564;42.902;25.336;2023-02-07T07:54:24;4.90;;;1.80;;
34296;SDS011;20564;42.902;25.336;2023-02-07T07:56:51;4.97;;;2.80;;
34296;SDS011;20564;42.902;25.336;2023-02-07T07:59:17;10.32;;;4.45;;
34296;SDS011;20564;42.902;25.336;2023-02-07T08:01:49;9.93;;;3.78;;
34296;SDS011;20564;42.902;25.336;2023-02-07T08:43:37;2.47;;;0.88;;
34296;SDS011;20564;42.902;25.336;2023-02-07T08:46:04;3.53;;;0.83;;
34296;SDS011;20564;42.902;25.336;2023-02-07T08:48:31;3.10;;;0.70;;
34296;SDS011;20564;42.902;25.336;2023-02-07T08:51:02;2.42;;;1.25;;
34296;SDS011;20564;42.902;25.336;2023-02-07T08:53:30;4.67;;;1.47;;
34296;SDS011;20564;42.902;25.336;2023-02-07T08:55:57;2.80;;;0.57;;
34296;SDS011;20564;42.902;25.336;2023-02-07T08:58:24;3.10;;;1.43;;
34296;SDS011;20564;42.902;25.336;2023-02-07T09:00:51;2.00;;;0.70;;
34296;SDS011;20564;42.902;25.336;2023-02-07T09:03:18;0.67;;;0.40;;
34296;SDS011;20564;42.902;25.336;2023-02-07T09:05:45;3.10;;;1.20;;
34296;SDS011;20564;42.902;25.336;2023-02-07T09:08:12;2.30;;;0.93;;
34296;SDS011;20564;42.902;25.336;2023-02-07T09:10:38;3.60;;;0.93;;
34296;SDS011;20564;42.902;25.336;2023-02-07T09:13:06;1.35;;;0.57;;
34296;SDS011;20564;42.902;25.336;2023-02-07T09:15:33;1.58;;;0.50;;
34296;SDS011;20564;42.902;25.336;2023-02-07T09:18:00;1.90;;;0.70;;
34296;SDS011;20564;42.902;25.336;2023-02-07T09:20:26;7.93;;;1.48;;
34296;SDS011;20564;42.902;25.336;2023-02-07T09:22:53;4.38;;;1.65;;
34296;SDS011;20564;42.902;25.336;2023-02-07T09:25:39;3.53;;;0.77;;
34296;SDS011;20564;42.902;25.336;2023-02-07T09:28:08;2.45;;;0.75;;
34296;SDS011;20564;42.902;25.336;2023-02-07T09:30:35;2.92;;;1.30;;
34296;SDS011;20564;42.902;25.336;2023-02-07T09:33:02;3.80;;;1.52;;
34296;SDS011;20564;42.902;25.336;2023-02-07T09:35:28;6.80;;;1.60;;
34296;SDS011;20564;42.902;25.336;2023-02-07T09:37:55;0.98;;;0.50;;
34296;SDS011;20564;42.902;25.336;2023-02-07T09:40:22;2.95;;;0.75;;
34296;SDS011;20564;42.902;25.336;2023-02-07T09:42:53;2.20;;;0.55;;
34296;SDS011;20564;42.902;25.336;2023-02-07T09:45:24;2.63;;;1.10;;
34296;SDS011;20564;42.902;25.336;2023-02-07T09:47:59;4.70;;;1.15;;
34296;SDS011;20564;42.902;25.336;2023-02-07T09:50:31;4.07;;;1.83;;
34296;SDS011;20564;42.902;25.336;2023-02-07T09:53:16;3.40;;;1.55;;
34296;SDS011;20564;42.902;25.336;2023-02-07T09:55:55;1.75;;;0.60;;
34296;SDS011;20564;42.902;25.336;2023-02-07T10:01:11;3.70;;;1.48;;
34296;SDS011;20564;42.902;25.336;2023-02-07T10:03:43;3.05;;;0.93;;
34296;SDS011;20564;42.902;25.336;2023-02-07T10:06:19;2.80;;;1.17;;
34296;SDS011;20564;42.902;25.336;2023-02-07T10:08:53;3.95;;;1.75;;
34296;SDS011;20564;42.902;25.336;2023-02-07T10:31:12;2.65;;;1.05;;
34296;SDS011;20564;42.902;25.336;2023-02-07T10:33:49;1.98;;;1.50;;
34296;SDS011;20564;42.902;25.336;2023-02-07T10:36:25;1.95;;;1.02;;
34296;SDS011;20564;42.902;25.336;2023-02-07T10:39:15;5.93;;;2.00;;
34296;SDS011;20564;42.902;25.336;2023-02-07T10:41:49;4.13;;;2.30;;
34296;SDS011;20564;42.902;25.336;2023-02-07T10:44:21;8.25;;;1.90;;
34296;SDS011;20564;42.902;25.336;2023-02-07T10:46:57;9.75;;;3.38;;
34296;SDS011;20564;42.902;25.336;2023-02-07T10:49:28;6.95;;;4.03;;
34296;SDS011;20564;42.902;25.336;2023-02-07T10:51:58;7.90;;;3.83;;
34296;SDS011;20564;42.902;25.336;2023-02-07T10:54:55;8.05;;;2.10;;
34296;SDS011;20564;42.902;25.336;2023-02-07T10:57:24;5.85;;;2.50;;
34296;SDS011;20564;42.902;25.336;2023-02-07T10:59:59;4.10;;;1.70;;
34296;SDS011;20564;42.902;25.336;2023-02-07T11:05:01;4.13;;;1.02;;
34296;SDS011;20564;42.902;25.336;2023-02-07T11:07:31;3.58;;;1.75;;
34296;SDS011;20564;42.902;25.336;2023-02-07T11:12:47;5.13;;;1.73;;
34296;SDS011;20564;42.902;25.336;2023-02-07T11:15:16;4.38;;;2.17;;
34296;SDS011;20564;42.902;25.336;2023-02-07T11:17:46;5.68;;;2.03;;
34296;SDS011;20564;42.902;25.336;2023-02-07T11:20:25;3.70;;;1.75;;
34296;SDS011;20564;42.902;25.336;2023-02-07T11:23:13;8.05;;;2.88;;
34296;SDS011;20564;42.902;25.336;2023-02-07T11:25:41;4.75;;;1.55;;
34296;SDS011;20564;42.902;25.336;2023-02-07T11:28:19;16.27;;;4.75;;
34296;SDS011;20564;42.902;25.336;2023-02-07T11:30:50;6.60;;;2.05;;
34296;SDS011;20564;42.902;25.336;2023-02-07T11:33:23;3.60;;;2.28;;
34296;SDS011;20564;42.902;25.336;2023-02-07T11:38:35;3.10;;;0.80;;
34296;SDS011;20564;42.902;25.336;2023-02-07T11:41:14;2.70;;;0.98;;
34296;SDS011;20564;42.902;25.336;2023-02-07T11:43:56;2.65;;;0.82;;
34296;SDS011;20564;42.902;25.336;2023-02-07T11:46:38;3.47;;;1.30;;
34296;SDS011;20564;42.902;25.336;2023-02-07T11:49:07;5.32;;;1.40;;
34296;SDS011;20564;42.902;25.336;2023-02-07T11:52:00;2.85;;;1.38;;
34296;SDS011;20564;42.902;25.336;2023-02-07T11:54:28;6.78;;;2.00;;
34296;SDS011;20564;42.902;25.336;2023-02-07T11:57:00;3.67;;;1.45;;
34296;SDS011;20564;42.902;25.336;2023-02-07T11:59:31;6.43;;;2.30;;
34296;SDS011;20564;42.902;25.336;2023-02-07T12:01:59;3.97;;;1.40;;
34296;SDS011;20564;42.902;25.336;2023-02-07T12:04:47;2.80;;;1.63;;
34296;SDS011;20564;42.902;25.336;2023-02-07T12:09:58;5.18;;;2.80;;
34296;SDS011;20564;42.902;25.336;2023-02-07T12:15:41;6.40;;;2.20;;
34296;SDS011;20564;42.902;25.336;2023-02-07T12:23:57;3.50;;;1.15;;
34296;SDS011;20564;42.902;25.336;2023-02-07T12:26:27;5.22;;;1.13;;
34296;SDS011;20564;42.902;25.336;2023-02-07T12:37:42;2.35;;;1.10;;
34296;SDS011;20564;42.902;25.336;2023-02-07T12:40:30;3.90;;;2.28;;
34296;SDS011;20564;42.902;25.336;2023-02-07T12:43:25;4.82;;;2.35;;
34296;SDS011;20564;42.902;25.336;2023-02-07T12:46:03;11.57;;;4.43;;
34296;SDS011;20564;42.902;25.336;2023-02-07T12:56:44;3.53;;;1.40;;
34296;SDS011;20564;42.902;25.336;2023-02-07T13:13:22;3.60;;;1.20;;
34296;SDS011;20564;42.902;25.336;2023-02-07T13:16:01;1.55;;;0.63;;
34296;SDS011;20564;42.902;25.336;2023-02-07T13:18:47;0.68;;;0.60;;
34296;SDS011;20564;42.902;25.336;2023-02-07T13:22:01;1.30;;;0.50;;
34296;SDS011;20564;42.902;25.336;2023-02-07T13:24:17;2.70;;;0.93;;
34296;SDS011;20564;42.902;25.336;2023-02-07T13:26:48;3.55;;;1.08;;
34296;SDS011;20564;42.902;25.336;2023-02-07T13:29:20;2.17;;;1.30;;
34296;SDS011;20564;42.902;25.336;2023-02-07T13:31:50;2.60;;;1.30;;
34296;SDS011;20564;42.902;25.336;2023-02-07T13:34:22;3.00;;;0.98;;
34296;SDS011;20564;42.902;25.336;2023-02-07T13:36:51;1.75;;;0.98;;
34296;SDS011;20564;42.902;25.336;2023-02-07T13:48:01;3.97;;;1.10;;
34296;SDS011;20564;42.902;25.336;2023-02-07T13:55:46;1.92;;;0.77;;
34296;SDS011;20564;42.902;25.336;2023-02-07T14:01:21;3.95;;;1.25;;
34296;SDS011;20564;42.902;25.336;2023-02-07T14:06:38;1.42;;;0.55;;
34296;SDS011;20564;42.902;25.336;2023-02-07T14:14:41;2.47;;;0.77;;
34296;SDS011;20564;42.902;25.336;2023-02-07T14:19:55;5.13;;;1.75;;
34296;SDS011;20564;42.902;25.336;2023-02-07T14:22:30;3.92;;;1.60;;
34296;SDS011;20564;42.902;25.336;2023-02-07T14:25:21;1.35;;;0.95;;
34296;SDS011;20564;42.902;25.336;2023-02-07T14:28:28;2.35;;;1.13;;
34296;SDS011;20564;42.902;25.336;2023-02-07T14:30:58;3.30;;;1.25;;
34296;SDS011;20564;42.902;25.336;2023-02-07T14:33:28;1.63;;;0.95;;
34296;SDS011;20564;42.902;25.336;2023-02-07T14:38:38;2.58;;;1.15;;
34296;SDS011;20564;42.902;25.336;2023-02-07T14:41:11;1.95;;;0.60;;
34296;SDS011;20564;42.902;25.336;2023-02-07T14:43:49;7.07;;;1.42;;
34296;SDS011;20564;42.902;25.336;2023-02-07T14:46:40;2.92;;;1.30;;
34296;SDS011;20564;42.902;25.336;2023-02-07T14:52:22;2.83;;;1.02;;
34296;SDS011;20564;42.902;25.336;2023-02-07T14:54:57;4.40;;;1.65;;
34296;SDS011;20564;42.902;25.336;2023-02-07T15:00:30;4.40;;;1.85;;
34296;SDS011;20564;42.902;25.336;2023-02-07T15:03:15;3.03;;;1.20;;
34296;SDS011;20564;42.902;25.336;2023-02-07T15:05:48;5.75;;;1.38;;
34296;SDS011;20564;42.902;25.336;2023-02-07T15:08:21;6.45;;;1.65;;
34296;SDS011;20564;42.902;25.336;2023-02-07T15:10:51;2.80;;;1.40;;
34296;SDS011;20564;42.902;25.336;2023-02-07T15:13:23;3.30;;;1.08;;
34296;SDS011;20564;42.902;25.336;2023-02-07T15:15:57;3.83;;;1.40;;
34296;SDS011;20564;42.902;25.336;2023-02-07T15:18:31;2.95;;;1.50;;
34296;SDS011;20564;42.902;25.336;2023-02-07T15:21:01;4.32;;;2.00;;
34296;SDS011;20564;42.902;25.336;2023-02-07T15:23:29;2.67;;;0.93;;
34296;SDS011;20564;42.902;25.336;2023-02-07T15:25:58;3.95;;;1.42;;
34296;SDS011;20564;42.902;25.336;2023-02-07T15:28:31;1.75;;;0.73;;
34296;SDS011;20564;42.902;25.336;2023-02-07T15:31:08;2.50;;;1.35;;
34296;SDS011;20564;42.902;25.336;2023-02-07T15:36:35;4.40;;;1.25;;
34296;SDS011;20564;42.902;25.336;2023-02-07T15:39:06;1.17;;;0.68;;
34296;SDS011;20564;42.902;25.336;2023-02-07T15:41:39;3.92;;;1.77;;
34296;SDS011;20564;42.902;25.336;2023-02-07T15:44:16;4.88;;;2.50;;
34296;SDS011;20564;42.902;25.336;2023-02-07T15:46:52;3.42;;;1.60;;
34296;SDS011;20564;42.902;25.336;2023-02-07T15:49:30;12.35;;;3.67;;
34296;SDS011;20564;42.902;25.336;2023-02-07T15:52:21;7.20;;;3.75;;
34296;SDS011;20564;42.902;25.336;2023-02-07T15:54:48;5.30;;;2.53;;
34296;SDS011;20564;42.902;25.336;2023-02-07T15:57:25;2.78;;;1.25;;
34296;SDS011;20564;42.902;25.336;2023-02-07T16:00:04;3.95;;;1.98;;
34296;SDS011;20564;42.902;25.336;2023-02-07T16:02:34;3.35;;;1.58;;
34296;SDS011;20564;42.902;25.336;2023-02-07T16:05:07;3.00;;;1.55;;
34296;SDS011;20564;42.902;25.336;2023-02-07T16:07:45;6.90;;;2.88;;
34296;SDS011;20564;42.902;25.336;2023-02-07T16:12:51;3.40;;;1.60;;
34296;SDS011;20564;42.902;25.336;2023-02-07T16:15:38;4.82;;;2.03;;
34296;SDS011;20564;42.902;25.336;2023-02-07T16:21:09;4.63;;;2.22;;
34296;SDS011;20564;42.902;25.336;2023-02-07T16:23:51;8.65;;;2.85;;
34296;SDS011;20564;42.902;25.336;2023-02-07T16:26:29;5.50;;;2.60;;
34296;SDS011;20564;42.902;25.336;2023-02-07T16:28:56;8.83;;;4.27;;
34296;SDS011;20564;42.902;25.336;2023-02-07T16:31:23;6.05;;;3.10;;
34296;SDS011;20564;42.902;25.336;2023-02-07T16:33:50;4.97;;;2.63;;
34296;SDS011;20564;42.902;25.336;2023-02-07T16:36:17;7.10;;;2.00;;
34296;SDS011;20564;42.902;25.336;2023-02-07T16:38:44;11.98;;;4.28;;
34296;SDS011;20564;42.902;25.336;2023-02-07T16:41:20;7.82;;;3.60;;
34296;SDS011;20564;42.902;25.336;2023-02-07T16:44:00;6.87;;;2.63;;
34296;SDS011;20564;42.902;25.336;2023-02-07T16:46:28;4.60;;;2.73;;
34296;SDS011;20564;42.902;25.336;2023-02-07T16:48:55;8.55;;;3.40;;
34296;SDS011;20564;42.902;25.336;2023-02-07T16:51:22;5.28;;;2.22;;
34296;SDS011;20564;42.902;25.336;2023-02-07T16:53:49;4.75;;;2.20;;
34296;SDS011;20564;42.902;25.336;2023-02-07T16:56:18;6.32;;;2.40;;
34296;SDS011;20564;42.902;25.336;2023-02-07T16:58:53;4.87;;;2.10;;
34296;SDS011;20564;42.902;25.336;2023-02-07T17:01:20;2.23;;;1.40;;
34296;SDS011;20564;42.902;25.336;2023-02-07T17:03:47;4.45;;;1.60;;
34296;SDS011;20564;42.902;25.336;2023-02-07T17:06:17;5.73;;;2.00;;
34296;SDS011;20564;42.902;25.336;2023-02-07T17:08:46;4.27;;;1.87;;
34296;SDS011;20564;42.902;25.336;2023-02-07T17:11:14;4.20;;;1.83;;
34296;SDS011;20564;42.902;25.336;2023-02-07T17:13:54;5.35;;;2.00;;
34296;SDS011;20564;42.902;25.336;2023-02-07T17:16:23;5.00;;;2.47;;
34296;SDS011;20564;42.902;25.336;2023-02-07T17:18:52;7.73;;;2.57;;
34296;SDS011;20564;42.902;25.336;2023-02-07T17:21:19;7.63;;;2.37;;
34296;SDS011;20564;42.902;25.336;2023-02-07T17:23:47;4.23;;;2.73;;
34296;SDS011;20564;42.902;25.336;2023-02-07T17:26:22;6.85;;;2.15;;
34296;SDS011;20564;42.902;25.336;2023-02-07T17:28:53;8.45;;;1.60;;
34296;SDS011;20564;42.902;25.336;2023-02-07T17:31:20;5.47;;;2.72;;
34296;SDS011;20564;42.902;25.336;2023-02-07T17:33:47;8.87;;;3.30;;
34296;SDS011;20564;42.902;25.336;2023-02-07T17:36:14;6.45;;;2.08;;
34296;SDS011;20564;42.902;25.336;2023-02-07T17:38:41;7.97;;;3.38;;
34296;SDS011;20564;42.902;25.336;2023-02-07T17:41:12;5.45;;;2.15;;
34296;SDS011;20564;42.902;25.336;2023-02-07T17:43:40;7.33;;;2.07;;
34296;SDS011;20564;42.902;25.336;2023-02-07T17:46:29;6.00;;;2.10;;
34296;SDS011;20564;42.902;25.336;2023-02-07T17:48:55;9.77;;;4.18;;
34296;SDS011;20564;42.902;25.336;2023-02-07T17:51:25;10.67;;;3.97;;
34296;SDS011;20564;42.902;25.336;2023-02-07T17:53:53;10.33;;;4.33;;
34296;SDS011;20564;42.902;25.336;2023-02-07T17:56:22;13.30;;;4.40;;
34296;SDS011;20564;42.902;25.336;2023-02-07T17:58:51;15.53;;;5.47;;
34296;SDS011;20564;42.902;25.336;2023-02-07T18:01:20;8.95;;;3.70;;
34296;SDS011;20564;42.902;25.336;2023-02-07T18:03:48;8.00;;;2.85;;
34296;SDS011;20564;42.902;25.336;2023-02-07T18:06:16;12.80;;;3.30;;
34296;SDS011;20564;42.902;25.336;2023-02-07T18:08:45;9.27;;;4.67;;
34296;SDS011;20564;42.902;25.336;2023-02-07T18:11:12;5.90;;;2.83;;
34296;SDS011;20564;42.902;25.336;2023-02-07T18:13:40;7.30;;;3.05;;
34296;SDS011;20564;42.902;25.336;2023-02-07T18:16:09;4.70;;;1.40;;
34296;SDS011;20564;42.902;25.336;2023-02-07T18:18:38;9.17;;;3.03;;
34296;SDS011;20564;42.902;25.336;2023-02-07T18:21:05;5.97;;;2.03;;
34296;SDS011;20564;42.902;25.336;2023-02-07T18:23:32;8.75;;;2.40;;
34296;SDS011;20564;42.902;25.336;2023-02-07T18:25:59;9.93;;;2.53;;